Terminal Aerodrome Forecast
Issued by NWS Grand Forks, ND

Home | Current Version | Previous Version | Text Only | Print | Product List | Glossary On
Versions: 1 2 3 4 5 6 7 8 9 10 11 12 13 14 15 16
796
FTUS43 KFGF 251236 AAA
TAFFAR
TAF AMD
KFAR 251236Z 2513/2612 20012KT P6SM BKN025
     FM251500 26015G22KT P6SM BKN020
     FM251700 29018G26KT P6SM VCSH OVC015
     FM252100 30021G29KT P6SM OVC040
     FM260100 31016KT P6SM BKN110
     FM260300 30014KT P6SM SCT080=

USA.gov is the U.S. government's official web portal to all federal, state and local government web resources and services.